sensor_id;sensor_type;location;lat;lon;timestamp;pressure;altitude;pressure_sealevel;temperature;humidity
76050;BME280;64967;50.234;19.224;2023-06-10T00:02:18;98100.75;;;15.55;100.00
76050;BME280;64967;50.234;19.224;2023-06-10T00:04:50;98105.13;;;15.56;100.00
76050;BME280;64967;50.234;19.224;2023-06-10T00:07:34;98095.91;;;15.57;100.00
76050;BME280;64967;50.234;19.224;2023-06-10T00:10:22;98099.19;;;15.59;100.00
76050;BME280;64967;50.234;19.224;2023-06-10T00:13:09;98094.81;;;15.58;100.00
76050;BME280;64967;50.234;19.224;2023-06-10T00:15:46;98095.63;;;15.58;100.00
76050;BME280;64967;50.234;19.224;2023-06-10T00:18:13;98101.91;;;15.59;100.00
76050;BME280;64967;50.234;19.224;2023-06-10T00:20:41;98100.50;;;15.56;100.00
76050;BME280;64967;50.234;19.224;2023-06-10T00:23:09;98106.19;;;15.55;100.00
76050;BME280;64967;50.234;19.224;2023-06-10T00:25:36;98099.09;;;15.54;100.00
76050;BME280;64967;50.234;19.224;2023-06-10T00:28:03;98107.03;;;15.55;100.00
76050;BME280;64967;50.234;19.224;2023-06-10T00:30:30;98102.41;;;15.56;100.00
76050;BME280;64967;50.234;19.224;2023-06-10T00:32:57;98111.97;;;15.58;100.00
76050;BME280;64967;50.234;19.224;2023-06-10T00:35:24;98116.97;;;15.61;100.00
76050;BME280;64967;50.234;19.224;2023-06-10T00:37:51;98111.25;;;15.63;100.00
76050;BME280;64967;50.234;19.224;2023-06-10T00:40:18;98121.09;;;15.64;100.00
76050;BME280;64967;50.234;19.224;2023-06-10T00:42:46;98117.84;;;15.67;100.00
76050;BME280;64967;50.234;19.224;2023-06-10T00:45:13;98113.50;;;15.66;100.00
76050;BME280;64967;50.234;19.224;2023-06-10T00:47:40;98126.88;;;15.68;100.00
76050;BME280;64967;50.234;19.224;2023-06-10T00:50:07;98123.91;;;15.69;100.00
76050;BME280;64967;50.234;19.224;2023-06-10T00:52:35;98115.50;;;15.71;100.00
76050;BME280;64967;50.234;19.224;2023-06-10T00:55:02;98123.41;;;15.72;100.00
76050;BME280;64967;50.234;19.224;2023-06-10T00:57:29;98125.06;;;15.73;100.00
76050;BME280;64967;50.234;19.224;2023-06-10T00:59:56;98124.00;;;15.74;100.00
76050;BME280;64967;50.234;19.224;2023-06-10T01:02:24;98126.50;;;15.76;100.00
76050;BME280;64967;50.234;19.224;2023-06-10T01:04:54;98122.66;;;15.77;100.00
76050;BME280;64967;50.234;19.224;2023-06-10T01:10:59;98119.47;;;15.80;100.00
76050;BME280;64967;50.234;19.224;2023-06-10T01:13:53;98129.03;;;15.82;100.00
76050;BME280;64967;50.234;19.224;2023-06-10T01:16:40;98105.66;;;15.70;100.00
76050;BME280;64967;50.234;19.224;2023-06-10T01:19:21;98128.22;;;15.82;100.00
76050;BME280;64967;50.234;19.224;2023-06-10T01:21:51;98124.41;;;15.83;100.00
76050;BME280;64967;50.234;19.224;2023-06-10T01:24:18;98124.41;;;15.83;100.00
76050;BME280;64967;50.234;19.224;2023-06-10T01:26:49;98124.19;;;15.84;100.00
76050;BME280;64967;50.234;19.224;2023-06-10T01:29:20;98128.81;;;15.84;100.00
76050;BME280;64967;50.234;19.224;2023-06-10T01:32:04;98128.72;;;15.79;100.00
76050;BME280;64967;50.234;19.224;2023-06-10T01:34:33;98125.16;;;15.78;100.00
76050;BME280;64967;50.234;19.224;2023-06-10T01:37:03;98128.94;;;15.77;100.00
76050;BME280;64967;50.234;19.224;2023-06-10T01:39:32;98130.84;;;15.77;100.00
76050;BME280;64967;50.234;19.224;2023-06-10T01:41:59;98127.22;;;15.71;100.00
76050;BME280;64967;50.234;19.224;2023-06-10T01:44:29;98136.47;;;15.70;100.00
76050;BME280;64967;50.234;19.224;2023-06-10T01:46:56;98135.63;;;15.70;100.00
76050;BME280;64967;50.234;19.224;2023-06-10T01:49:23;98144.53;;;15.65;100.00
76050;BME280;64967;50.234;19.224;2023-06-10T01:51:51;98136.59;;;15.63;100.00
76050;BME280;64967;50.234;19.224;2023-06-10T01:54:18;98145.38;;;15.66;100.00
76050;BME280;64967;50.234;19.224;2023-06-10T01:56:45;98141.31;;;15.68;100.00
76050;BME280;64967;50.234;19.224;2023-06-10T01:59:12;98145.94;;;15.68;100.00
76050;BME280;64967;50.234;19.224;2023-06-10T02:01:39;98146.69;;;15.63;100.00
76050;BME280;64967;50.234;19.224;2023-06-10T02:04:06;98136.59;;;15.63;100.00
76050;BME280;64967;50.234;19.224;2023-06-10T02:06:33;98136.38;;;15.65;100.00
76050;BME280;64967;50.234;19.224;2023-06-10T02:09:01;98144.03;;;15.68;100.00
76050;BME280;64967;50.234;19.224;2023-06-10T02:11:28;98137.53;;;15.69;100.00
76050;BME280;64967;50.234;19.224;2023-06-10T02:13:55;98142.38;;;15.67;100.00
76050;BME280;64967;50.234;19.224;2023-06-10T02:16:22;98139.66;;;15.67;100.00
76050;BME280;64967;50.234;19.224;2023-06-10T02:18:49;98135.31;;;15.66;100.00
76050;BME280;64967;50.234;19.224;2023-06-10T02:21:16;98138.59;;;15.68;100.00
76050;BME280;64967;50.234;19.224;2023-06-10T02:23:43;98134.22;;;15.67;100.00
76050;BME280;64967;50.234;19.224;2023-06-10T02:26:10;98136.94;;;15.67;100.00
76050;BME280;64967;50.234;19.224;2023-06-10T02:28:37;98140.25;;;15.69;100.00
76050;BME280;64967;50.234;19.224;2023-06-10T02:31:04;98134.81;;;15.69;100.00
76050;BME280;64967;50.234;19.224;2023-06-10T02:33:31;98138.13;;;15.71;100.00
76050;BME280;64967;50.234;19.224;2023-06-10T02:36:00;98132.31;;;15.68;100.00
76050;BME280;64967;50.234;19.224;2023-06-10T02:38:27;98143.72;;;15.65;100.00
76050;BME280;64967;50.234;19.224;2023-06-10T02:40:54;98149.31;;;15.58;100.00
76050;BME280;64967;50.234;19.224;2023-06-10T02:43:21;98151.56;;;15.61;100.00
76050;BME280;64967;50.234;19.224;2023-06-10T02:45:48;98148.34;;;15.64;100.00
76050;BME280;64967;50.234;19.224;2023-06-10T02:48:15;98151.66;;;15.66;100.00
76050;BME280;64967;50.234;19.224;2023-06-10T02:50:42;98143.81;;;15.70;100.00
76050;BME280;64967;50.234;19.224;2023-06-10T02:53:09;98152.81;;;15.70;100.00
76050;BME280;64967;50.234;19.224;2023-06-10T02:55:36;98150.66;;;15.72;100.00
76050;BME280;64967;50.234;19.224;2023-06-10T02:58:03;98155.66;;;15.75;100.00
76050;BME280;64967;50.234;19.224;2023-06-10T03:00:30;98143.66;;;15.76;100.00
76050;BME280;64967;50.234;19.224;2023-06-10T03:02:57;98155.56;;;15.70;100.00
76050;BME280;64967;50.234;19.224;2023-06-10T03:05:25;98153.16;;;15.74;100.00
76050;BME280;64967;50.234;19.224;2023-06-10T03:07:52;98155.44;;;15.65;100.00
76050;BME280;64967;50.234;19.224;2023-06-10T03:10:19;98159.34;;;15.69;100.00
76050;BME280;64967;50.234;19.224;2023-06-10T03:12:46;98157.09;;;15.66;100.00
76050;BME280;64967;50.234;19.224;2023-06-10T03:15:13;98152.13;;;15.63;100.00
76050;BME280;64967;50.234;19.224;2023-06-10T03:17:41;98155.13;;;15.61;100.00
76050;BME280;64967;50.234;19.224;2023-06-10T03:20:09;98150.97;;;15.59;100.00
76050;BME280;64967;50.234;19.224;2023-06-10T03:22:37;98158.06;;;15.60;100.00
76050;BME280;64967;50.234;19.224;2023-06-10T03:25:05;98155.44;;;15.65;100.00
76050;BME280;64967;50.234;19.224;2023-06-10T03:27:33;98165.84;;;15.68;100.00
76050;BME280;64967;50.234;19.224;2023-06-10T03:30:01;98168.91;;;15.72;100.00
76050;BME280;64967;50.234;19.224;2023-06-10T03:32:29;98168.78;;;15.78;100.00
76050;BME280;64967;50.234;19.224;2023-06-10T03:34:56;98178.75;;;15.73;100.00
76050;BME280;64967;50.234;19.224;2023-06-10T03:37:24;98174.00;;;15.80;100.00
76050;BME280;64967;50.234;19.224;2023-06-10T03:39:52;98179.78;;;15.83;100.00
76050;BME280;64967;50.234;19.224;2023-06-10T03:42:19;98184.25;;;15.89;100.00
76050;BME280;64967;50.234;19.224;2023-06-10T03:44:46;98172.84;;;15.92;100.00
76050;BME280;64967;50.234;19.224;2023-06-10T03:47:13;98176.75;;;15.96;100.00
76050;BME280;64967;50.234;19.224;2023-06-10T03:49:40;98179.78;;;16.00;100.00
76050;BME280;64967;50.234;19.224;2023-06-10T03:52:07;98190.19;;;16.03;100.00
76050;BME280;64967;50.234;19.224;2023-06-10T03:54:34;98189.72;;;16.06;100.00
76050;BME280;64967;50.234;19.224;2023-06-10T03:57:02;98188.91;;;16.05;100.00
76050;BME280;64967;50.234;19.224;2023-06-10T03:59:29;98187.94;;;16.12;100.00
76050;BME280;64967;50.234;19.224;2023-06-10T04:01:57;98180.81;;;16.11;100.00
76050;BME280;64967;50.234;19.224;2023-06-10T04:04:24;98189.47;;;16.07;100.00
76050;BME280;64967;50.234;19.224;2023-06-10T04:06:51;98188.41;;;16.08;100.00
76050;BME280;64967;50.234;19.224;2023-06-10T04:09:18;98182.78;;;15.98;100.00
76050;BME280;64967;50.234;19.224;2023-06-10T04:11:45;98199.72;;;16.00;100.00
76050;BME280;64967;50.234;19.224;2023-06-10T04:14:13;98195.41;;;16.04;100.00
76050;BME280;64967;50.234;19.224;2023-06-10T04:16:40;98194.13;;;16.07;100.00
76050;BME280;64967;50.234;19.224;2023-06-10T04:19:09;98195.50;;;16.10;100.00
76050;BME280;64967;50.234;19.224;2023-06-10T04:21:36;98185.19;;;16.12;100.00
76050;BME280;64967;50.234;19.224;2023-06-10T04:24:03;98184.94;;;16.13;100.00
76050;BME280;64967;50.234;19.224;2023-06-10T04:26:30;98195.38;;;16.16;100.00
76050;BME280;64967;50.234;19.224;2023-06-10T04:28:57;98194.53;;;16.16;100.00
76050;BME280;64967;50.234;19.224;2023-06-10T04:31:24;98192.28;;;16.13;100.00
76050;BME280;64967;50.234;19.224;2023-06-10T04:33:51;98197.00;;;16.17;100.00
76050;BME280;64967;50.234;19.224;2023-06-10T04:36:18;98200.00;;;16.16;100.00
76050;BME280;64967;50.234;19.224;2023-06-10T04:38:46;98197.81;;;16.18;100.00
76050;BME280;64967;50.234;19.224;2023-06-10T04:41:13;98199.00;;;16.22;100.00
76050;BME280;64967;50.234;19.224;2023-06-10T04:43:40;98185.03;;;16.18;100.00
76050;BME280;64967;50.234;19.224;2023-06-10T04:46:07;98194.03;;;16.19;100.00
76050;BME280;64967;50.234;19.224;2023-06-10T04:48:34;98189.56;;;16.13;100.00
76050;BME280;64967;50.234;19.224;2023-06-10T04:51:02;98191.31;;;16.02;100.00
76050;BME280;64967;50.234;19.224;2023-06-10T04:53:29;98183.94;;;16.02;100.00
76050;BME280;64967;50.234;19.224;2023-06-10T04:55:57;98190.06;;;16.10;100.00
76050;BME280;64967;50.234;19.224;2023-06-10T04:58:24;98195.00;;;16.13;100.00
76050;BME280;64967;50.234;19.224;2023-06-10T05:00:51;98199.81;;;16.22;100.00
76050;BME280;64967;50.234;19.224;2023-06-10T05:03:18;98199.81;;;16.22;100.00
76050;BME280;64967;50.234;19.224;2023-06-10T05:05:45;98200.22;;;16.31;100.00
76050;BME280;64967;50.234;19.224;2023-06-10T05:08:12;98204.13;;;16.35;100.00
76050;BME280;64967;50.234;19.224;2023-06-10T05:10:39;98203.56;;;16.33;100.00
76050;BME280;64967;50.234;19.224;2023-06-10T05:13:06;98214.38;;;16.28;100.00
76050;BME280;64967;50.234;19.224;2023-06-10T05:15:33;98209.94;;;16.38;100.00
76050;BME280;64967;50.234;19.224;2023-06-10T05:18:00;98209.59;;;16.51;100.00
76050;BME280;64967;50.234;19.224;2023-06-10T05:20:29;98216.44;;;16.54;100.00
76050;BME280;64967;50.234;19.224;2023-06-10T05:22:56;98213.22;;;16.57;100.00
76050;BME280;64967;50.234;19.224;2023-06-10T05:25:25;98220.38;;;16.58;100.00
76050;BME280;64967;50.234;19.224;2023-06-10T05:27:53;98218.22;;;16.60;100.00
76050;BME280;64967;50.234;19.224;2023-06-10T05:30:20;98216.56;;;16.59;100.00
76050;BME280;64967;50.234;19.224;2023-06-10T05:32:48;98225.72;;;16.53;100.00
76050;BME280;64967;50.234;19.224;2023-06-10T05:35:15;98212.41;;;16.57;100.00
76050;BME280;64967;50.234;19.224;2023-06-10T05:37:42;98210.75;;;16.56;100.00
76050;BME280;64967;50.234;19.224;2023-06-10T05:40:10;98216.44;;;16.54;100.00
76050;BME280;64967;50.234;19.224;2023-06-10T05:42:37;98222.16;;;16.52;100.00
76050;BME280;64967;50.234;19.224;2023-06-10T05:45:05;98223.91;;;16.42;100.00
76050;BME280;64967;50.234;19.224;2023-06-10T05:47:34;98219.94;;;16.33;100.00
76050;BME280;64967;50.234;19.224;2023-06-10T05:50:01;98226.78;;;16.35;100.00
76050;BME280;64967;50.234;19.224;2023-06-10T05:52:29;98224.78;;;16.31;100.00
76050;BME280;64967;50.234;19.224;2023-06-10T05:54:56;98230.59;;;16.34;100.00
76050;BME280;64967;50.234;19.224;2023-06-10T05:57:23;98238.28;;;16.37;100.00
76050;BME280;64967;50.234;19.224;2023-06-10T05:59:50;98239.03;;;16.33;100.00
76050;BME280;64967;50.234;19.224;2023-06-10T06:02:17;98235.97;;;16.29;100.00
76050;BME280;64967;50.234;19.224;2023-06-10T06:04:44;98233.56;;;16.33;100.00
76050;BME280;64967;50.234;19.224;2023-06-10T06:07:11;98241.75;;;16.33;100.00
76050;BME280;64967;50.234;19.224;2023-06-10T06:09:38;98235.06;;;16.24;100.00
76050;BME280;64967;50.234;19.224;2023-06-10T06:12:05;98238.19;;;16.16;100.00
76050;BME280;64967;50.234;19.224;2023-06-10T06:14:37;98238.19;;;16.16;100.00
76050;BME280;64967;50.234;19.224;2023-06-10T06:17:06;98237.81;;;16.12;100.00
76050;BME280;64967;50.234;19.224;2023-06-10T06:19:33;98209.22;;;15.98;100.00
76050;BME280;64967;50.234;19.224;2023-06-10T06:22:00;98247.94;;;16.12;100.00
76050;BME280;64967;50.234;19.224;2023-06-10T06:24:27;98245.22;;;16.12;100.00
76050;BME280;64967;50.234;19.224;2023-06-10T06:26:55;98244.94;;;16.13;100.00
76050;BME280;64967;50.234;19.224;2023-06-10T06:29:22;98253.38;;;16.12;100.00
76050;BME280;64967;50.234;19.224;2023-06-10T06:31:49;98257.84;;;16.18;100.00
76050;BME280;64967;50.234;19.224;2023-06-10T06:34:16;98267.09;;;16.17;100.00
76050;BME280;64967;50.234;19.224;2023-06-10T06:36:43;98260.09;;;16.21;100.00
76050;BME280;64967;50.234;19.224;2023-06-10T06:39:10;98264.47;;;16.22;100.00
76050;BME280;64967;50.234;19.224;2023-06-10T06:41:37;98270.66;;;16.17;100.00
76050;BME280;64967;50.234;19.224;2023-06-10T06:44:04;98271.81;;;16.21;100.00
76050;BME280;64967;50.234;19.224;2023-06-10T06:46:31;98276.69;;;16.19;100.00
76050;BME280;64967;50.234;19.224;2023-06-10T06:48:58;98279.84;;;16.11;100.00
76050;BME280;64967;50.234;19.224;2023-06-10T06:51:25;98273.03;;;16.14;100.00
76050;BME280;64967;50.234;19.224;2023-06-10T06:53:52;98277.78;;;16.18;100.00
76050;BME280;64967;50.234;19.224;2023-06-10T06:56:23;98280.81;;;16.22;100.00
76050;BME280;64967;50.234;19.224;2023-06-10T06:58:50;98268.94;;;16.28;100.00
76050;BME280;64967;50.234;19.224;2023-06-10T07:01:17;98281.13;;;16.37;100.00
76050;BME280;64967;50.234;19.224;2023-06-10T07:03:44;98288.81;;;16.40;100.00
76050;BME280;64967;50.234;19.224;2023-06-10T07:06:12;98279.72;;;16.34;100.00
76050;BME280;64967;50.234;19.224;2023-06-10T07:08:39;98290.78;;;16.44;100.00
76050;BME280;64967;50.234;19.224;2023-06-10T07:11:06;98289.00;;;16.50;100.00
76050;BME280;64967;50.234;19.224;2023-06-10T07:13:33;98291.94;;;16.48;100.00
76050;BME280;64967;50.234;19.224;2023-06-10T07:16:00;98304.50;;;16.61;100.00
76050;BME280;64967;50.234;19.224;2023-06-10T07:18:27;98284.91;;;16.64;100.00
76050;BME280;64967;50.234;19.224;2023-06-10T07:20:54;98282.25;;;16.69;100.00
76050;BME280;64967;50.234;19.224;2023-06-10T07:23:21;98295.31;;;16.67;100.00
76050;BME280;64967;50.234;19.224;2023-06-10T07:25:48;98290.88;;;16.61;100.00
76050;BME280;64967;50.234;19.224;2023-06-10T07:28:15;98297.56;;;16.70;100.00
76050;BME280;64967;50.234;19.224;2023-06-10T07:30:42;98300.31;;;16.70;100.00
76050;BME280;64967;50.234;19.224;2023-06-10T07:33:10;98294.84;;;16.70;100.00
76050;BME280;64967;50.234;19.224;2023-06-10T07:35:37;98298.31;;;16.82;100.00
76050;BME280;64967;50.234;19.224;2023-06-10T07:38:04;98292.66;;;16.89;100.00
76050;BME280;64967;50.234;19.224;2023-06-10T07:40:31;98295.66;;;16.87;100.00
76050;BME280;64967;50.234;19.224;2023-06-10T07:43:00;98297.31;;;17.05;100.00
76050;BME280;64967;50.234;19.224;2023-06-10T07:45:28;98294.78;;;17.20;100.00
76050;BME280;64967;50.234;19.224;2023-06-10T07:47:55;98303.25;;;17.19;100.00
76050;BME280;64967;50.234;19.224;2023-06-10T07:50:22;98297.47;;;17.15;100.00
76050;BME280;64967;50.234;19.224;2023-06-10T07:52:49;98304.56;;;17.33;100.00
76050;BME280;64967;50.234;19.224;2023-06-10T07:55:16;98299.19;;;17.43;100.00
76050;BME280;64967;50.234;19.224;2023-06-10T07:57:43;98287.91;;;17.73;100.00
76050;BME280;64967;50.234;19.224;2023-06-10T08:00:11;98289.78;;;17.94;100.00
76050;BME280;64967;50.234;19.224;2023-06-10T08:02:38;98300.63;;;18.11;100.00
76050;BME280;64967;50.234;19.224;2023-06-10T08:05:06;98292.78;;;18.46;100.00
76050;BME280;64967;50.234;19.224;2023-06-10T08:07:34;98290.88;;;18.68;100.00
76050;BME280;64967;50.234;19.224;2023-06-10T08:10:02;98293.25;;;18.97;100.00
76050;BME280;64967;50.234;19.224;2023-06-10T08:12:29;98301.06;;;19.15;100.00
76050;BME280;64967;50.234;19.224;2023-06-10T08:14:56;98297.13;;;19.01;100.00
76050;BME280;64967;50.234;19.224;2023-06-10T08:17:23;98300.63;;;19.28;100.00
76050;BME280;64967;50.234;19.224;2023-06-10T08:19:50;98303.34;;;19.28;100.00
76050;BME280;64967;50.234;19.224;2023-06-10T08:22:18;98298.06;;;19.53;100.00
76050;BME280;64967;50.234;19.224;2023-06-10T08:24:45;98295.59;;;19.52;100.00
76050;BME280;64967;50.234;19.224;2023-06-10T08:27:14;98299.00;;;19.32;100.00
76050;BME280;64967;50.234;19.224;2023-06-10T08:29:41;98300.66;;;19.33;100.00
76050;BME280;64967;50.234;19.224;2023-06-10T08:59:03;98308.63;;;19.77;100.00
76050;BME280;64967;50.234;19.224;2023-06-10T09:01:56;98316.06;;;19.91;99.94
76050;BME280;64967;50.234;19.224;2023-06-10T09:04:26;98318.34;;;20.10;100.00
76050;BME280;64967;50.234;19.224;2023-06-10T09:06:55;98319.19;;;20.15;99.72
76050;BME280;64967;50.234;19.224;2023-06-10T09:09:23;98319.28;;;20.30;99.71
76050;BME280;64967;50.234;19.224;2023-06-10T09:11:52;98310.78;;;20.42;99.11
76050;BME280;64967;50.234;19.224;2023-06-10T09:14:19;98319.84;;;20.37;96.29
76050;BME280;64967;50.234;19.224;2023-06-10T09:16:46;98318.16;;;20.31;97.82
76050;BME280;64967;50.234;19.224;2023-06-10T09:19:17;98322.22;;;20.19;100.00
76050;BME280;64967;50.234;19.224;2023-06-10T09:21:44;98321.94;;;20.15;99.55
76050;BME280;64967;50.234;19.224;2023-06-10T09:24:11;98316.47;;;20.20;98.74
76050;BME280;64967;50.234;19.224;2023-06-10T09:26:38;98315.47;;;20.52;97.63
76050;BME280;64967;50.234;19.224;2023-06-10T09:29:06;98306.16;;;20.58;97.53
76050;BME280;64967;50.234;19.224;2023-06-10T09:31:36;98308.91;;;20.88;95.31
76050;BME280;64967;50.234;19.224;2023-06-10T09:36:35;98319.09;;;20.87;95.80
76050;BME280;64967;50.234;19.224;2023-06-10T09:39:03;98294.03;;;20.59;96.69
76050;BME280;64967;50.234;19.224;2023-06-10T09:41:34;98308.88;;;20.53;93.47
76050;BME280;64967;50.234;19.224;2023-06-10T09:44:02;98300.66;;;20.53;93.42
76050;BME280;64967;50.234;19.224;2023-06-10T09:46:35;98318.75;;;20.43;94.00
76050;BME280;64967;50.234;19.224;2023-06-10T09:49:02;98288.25;;;20.40;90.33
76050;BME280;64967;50.234;19.224;2023-06-10T09:51:29;98313.31;;;20.84;92.38
76050;BME280;64967;50.234;19.224;2023-06-10T09:53:56;98323.75;;;20.97;94.38
76050;BME280;64967;50.234;19.224;2023-06-10T09:56:38;98324.31;;;21.09;94.23
76050;BME280;64967;50.234;19.224;2023-06-10T09:59:09;98320.50;;;21.20;92.35
76050;BME280;64967;50.234;19.224;2023-06-10T10:01:36;98322.63;;;21.03;89.01
76050;BME280;64967;50.234;19.224;2023-06-10T10:04:03;98323.19;;;20.95;90.76
76050;BME280;64967;50.234;19.224;2023-06-10T10:06:31;98317.44;;;21.07;91.97
76050;BME280;64967;50.234;19.224;2023-06-10T10:08:58;98316.59;;;20.96;89.31
76050;BME280;64967;50.234;19.224;2023-06-10T10:11:26;98324.28;;;20.94;89.05
76050;BME280;64967;50.234;19.224;2023-06-10T10:13:54;98321.00;;;20.97;89.88
76050;BME280;64967;50.234;19.224;2023-06-10T10:16:36;98324.28;;;20.94;89.00
76050;BME280;64967;50.234;19.224;2023-06-10T10:19:19;98324.84;;;21.01;87.37
76050;BME280;64967;50.234;19.224;2023-06-10T10:21:53;98327.88;;;20.89;87.89
76050;BME280;64967;50.234;19.224;2023-06-10T10:24:23;98323.19;;;20.90;86.72
76050;BME280;64967;50.234;19.224;2023-06-10T10:26:55;98322.09;;;20.81;87.03
76050;BME280;64967;50.234;19.224;2023-06-10T10:29:38;98323.75;;;20.92;87.57
76050;BME280;64967;50.234;19.224;2023-06-10T10:32:11;98326.78;;;21.21;89.21
76050;BME280;64967;50.234;19.224;2023-06-10T10:34:49;98318.84;;;21.24;84.85
76050;BME280;64967;50.234;19.224;2023-06-10T10:37:17;98324.03;;;20.96;85.19
76050;BME280;64967;50.234;19.224;2023-06-10T10:39:44;98318.75;;;20.59;85.64
76050;BME280;64967;50.234;19.224;2023-06-10T10:42:12;98325.38;;;20.68;88.21
76050;BME280;64967;50.234;19.224;2023-06-10T10:44:40;98324.03;;;21.01;88.51
76050;BME280;64967;50.234;19.224;2023-06-10T10:47:08;98328.16;;;20.98;87.98
76050;BME280;64967;50.234;19.224;2023-06-10T10:49:37;98321.00;;;20.82;84.61
76050;BME280;64967;50.234;19.224;2023-06-10T10:52:11;98319.34;;;20.96;83.58
76050;BME280;64967;50.234;19.224;2023-06-10T10:54:43;98326.78;;;21.11;83.51
76050;BME280;64967;50.234;19.224;2023-06-10T10:57:16;98327.63;;;21.11;85.98
76050;BME280;64967;50.234;19.224;2023-06-10T10:59:53;98339.19;;;21.33;82.00
76050;BME280;64967;50.234;19.224;2023-06-10T11:02:42;98326.78;;;21.31;81.55
76050;BME280;64967;50.234;19.224;2023-06-10T11:05:13;98312.75;;;21.38;80.97
76050;BME280;64967;50.234;19.224;2023-06-10T11:07:51;98320.19;;;21.32;80.41
76050;BME280;64967;50.234;19.224;2023-06-10T11:10:29;98321.28;;;21.46;81.31
76050;BME280;64967;50.234;19.224;2023-06-10T11:12:56;98314.13;;;21.30;82.86
76050;BME280;64967;50.234;19.224;2023-06-10T11:15:26;98318.22;;;21.53;82.65
76050;BME280;64967;50.234;19.224;2023-06-10T11:29:01;98277.31;;;22.10;79.75
76050;BME280;64967;50.234;19.224;2023-06-10T11:31:40;98298.94;;;22.37;77.60
76050;BME280;64967;50.234;19.224;2023-06-10T11:34:08;98303.25;;;21.99;76.21
76050;BME280;64967;50.234;19.224;2023-06-10T11:36:40;98308.75;;;21.99;80.32
76050;BME280;64967;50.234;19.224;2023-06-10T11:39:09;98310.19;;;21.76;77.54
76050;BME280;64967;50.234;19.224;2023-06-10T11:41:38;98302.50;;;21.73;79.84
76050;BME280;64967;50.234;19.224;2023-06-10T11:44:13;98301.88;;;21.92;81.14
76050;BME280;64967;50.234;19.224;2023-06-10T11:46:45;98302.94;;;22.11;79.99
76050;BME280;64967;50.234;19.224;2023-06-10T11:49:14;98283.94;;;22.04;75.35
76050;BME280;64967;50.234;19.224;2023-06-10T11:51:41;98304.84;;;22.10;80.09
76050;BME280;64967;50.234;19.224;2023-06-10T11:54:16;98292.66;;;22.21;76.82
76050;BME280;64967;50.234;19.224;2023-06-10T11:56:44;98290.03;;;22.50;77.56
76050;BME280;64967;50.234;19.224;2023-06-10T11:59:11;98283.03;;;22.63;75.77
76050;BME280;64967;50.234;19.224;2023-06-10T12:01:44;98286.28;;;22.75;76.52
76050;BME280;64967;50.234;19.224;2023-06-10T12:04:12;98278.59;;;22.72;73.40
76050;BME280;64967;50.234;19.224;2023-06-10T12:06:47;98283.56;;;22.65;77.36
76050;BME280;64967;50.234;19.224;2023-06-10T12:11:58;98292.75;;;22.94;74.35
76050;BME280;64967;50.234;19.224;2023-06-10T12:14:52;98294.97;;;22.92;73.46
76050;BME280;64967;50.234;19.224;2023-06-10T12:20:00;98291.81;;;22.70;74.30
76050;BME280;64967;50.234;19.224;2023-06-10T12:22:36;98290.19;;;22.69;71.79
76050;BME280;64967;50.234;19.224;2023-06-10T12:25:04;98286.13;;;22.95;70.91
76050;BME280;64967;50.234;19.224;2023-06-10T12:27:34;98284.09;;;22.72;72.15
76050;BME280;64967;50.234;19.224;2023-06-10T12:30:05;98285.41;;;22.80;73.25
76050;BME280;64967;50.234;19.224;2023-06-10T12:32:43;98292.31;;;23.11;74.93
76050;BME280;64967;50.234;19.224;2023-06-10T12:35:12;98285.75;;;23.36;71.92
76050;BME280;64967;50.234;19.224;2023-06-10T12:37:41;98280.31;;;23.26;71.33
76050;BME280;64967;50.234;19.224;2023-06-10T12:40:10;98289.97;;;23.57;70.87
76050;BME280;64967;50.234;19.224;2023-06-10T12:42:38;98277.09;;;23.19;68.98
76050;BME280;64967;50.234;19.224;2023-06-10T12:45:05;98289.56;;;23.40;69.09
76050;BME280;64967;50.234;19.224;2023-06-10T12:47:36;98280.03;;;22.98;68.36
76050;BME280;64967;50.234;19.224;2023-06-10T12:50:08;98282.19;;;23.01;72.20
76050;BME280;64967;50.234;19.224;2023-06-10T12:52:36;98270.19;;;22.48;70.56
76050;BME280;64967;50.234;19.224;2023-06-10T12:55:03;98275.28;;;22.70;72.29
76050;BME280;64967;50.234;19.224;2023-06-10T12:57:31;98281.25;;;22.87;70.67
76050;BME280;64967;50.234;19.224;2023-06-10T12:59:58;98274.72;;;23.07;71.71
76050;BME280;64967;50.234;19.224;2023-06-10T13:02:31;98277.78;;;23.05;68.00
76050;BME280;64967;50.234;19.224;2023-06-10T13:04:58;98276.84;;;23.15;70.24
76050;BME280;64967;50.234;19.224;2023-06-10T13:07:25;98288.88;;;23.24;68.16
76050;BME280;64967;50.234;19.224;2023-06-10T13:09:53;98277.47;;;23.36;70.00
76050;BME280;64967;50.234;19.224;2023-06-10T13:12:20;98280.31;;;23.26;70.75
76050;BME280;64967;50.234;19.224;2023-06-10T13:15:04;98273.69;;;23.27;66.60
76050;BME280;64967;50.234;19.224;2023-06-10T13:17:31;98276.69;;;23.01;70.20
76050;BME280;64967;50.234;19.224;2023-06-10T13:20:01;98275.81;;;22.77;69.04
76050;BME280;64967;50.234;19.224;2023-06-10T13:22:29;98271.94;;;22.78;69.98
76050;BME280;64967;50.234;19.224;2023-06-10T13:24:57;98274.47;;;23.03;71.42
76050;BME280;64967;50.234;19.224;2023-06-10T13:27:24;98270.38;;;23.01;69.78
76050;BME280;64967;50.234;19.224;2023-06-10T13:29:51;98270.94;;;22.98;69.20
76050;BME280;64967;50.234;19.224;2023-06-10T13:32:18;98271.19;;;23.30;68.76
76050;BME280;64967;50.234;19.224;2023-06-10T13:34:45;98250.34;;;23.43;68.99
76050;BME280;64967;50.234;19.224;2023-06-10T13:37:15;98162.47;;;22.45;65.64
76050;BME280;64967;50.234;19.224;2023-06-10T13:39:45;98276.69;;;23.01;66.87
76050;BME280;64967;50.234;19.224;2023-06-10T13:42:15;98166.25;;;22.20;71.24